Harrisburg, OR (97446)

6:05 AM PDT on September 18, 2014 (GMT -0700)
Valley Hay Co. | Change Station
CLOSE
Current Station
Personal Weather Station
Location: Harrisburg, OR
Elevation: 302 ft
Nearby Weather Stations

Elev 302 ft 44.32 °N, 123.13 °W | Updated 5 minutes ago

Mostly Cloudy
Mostly Cloudy
56.7 °F
Feels Like 56.7 °F
N
0.0
Wind Variable Wind from ESE

Today
High -- | Low -- °F
--% Chance of Precip.
Yesterday
High -- | Low -- °F
Precip. -- in
6:55 AM 7:17 PM
Waning Crescent, 27% visible
Pressure 29.77 in
Visibility 10.0 miles
Clouds Few 5000 ft
Scattered Clouds 8000 ft
Dew Point 54 °F
Humidity 91%
Rainfall 0.00 in
Snow Depth 0 in , 0 in , 0 in
UV 0 out of 12
Pollen .40 out of 12
Ozone Good
PM2.5 Good
Flu Activity Not available.
METAR KEUG 181254Z 16004KT 10SM FEW050 SCT080 12/10 A2977 RMK AO2 SLP080 T01220100 $

More Conditions Fewer Conditions

Pressure 29.77 in
Visibility 10.0 miles
Clouds Few 5000 ft
Scattered Clouds 8000 ft
Dew Point 54 °F
Humidity 91%
Rainfall 0.00 in
Snow Depth 0 in , 0 in , 0 in
UV 0 out of 12
Pollen .40 out of 12
Ozone Good
PM2.5 Good
Flu Activity Not available.
METAR KEUG 181254Z 16004KT 10SM FEW050 SCT080 12/10 A2977 RMK AO2 SLP080 T01220100 $

More Conditions Fewer Conditions

10-Day Weather Forecast

Almanac

Astronomy

Sep. 18, 2014 Rise Set
Actual Time 6:55 AM PDT 7:17 PM PDT
Civil Twilight 6:26 AM PDT 7:46 PM PDT
Nautical Twilight 5:51 AM PDT 8:20 PM PDT
Astronomical Twilight 5:16 AM PDT 8:55 PM PDT
Moon 1:43 AM PDT 4:19 PM PDT
Length of Visible Light 13h 20m
Length of Day
12h 22m
Tomorrow will be 3m 2s shorter.
Waning Crescent, 27% of the Moon is Illuminated
Today
Waning Crescent
Sep 24
New
Oct 1
First Quarter
Oct 8
Full
Oct 15
Last Quarter

Today's Extremes

State Highs State Lows

Community

WunderPhotos

Upload Photos

1,754,334 photos uploaded!

Nearby

Air Quality

  Air Quality AQ Index Pollutant
Yesterday Moderate
PM2.5
Yesterday Good
OZONE
Current Good
PM2.5
Current Good
OZONE
Thursday Good
PM2.5

Snow Depth

Station Depth Elevation
Fish Creek 0 in 7900 ft
Beaver Reservoir 0 in 5150 ft
Seine Creek 0 in 2000 ft
Santiam Junction 0 in 3750 ft
Schneider Meadows 0 in 5400 ft

Earthquake Activity

City Distance Mag. Time & Date
No recent earthquake activity has been reported nearby.
Minimum magnitude displayed is 2.5.

Coastal Water Temperatures

Place Temperature
No Stations Reporting

Nearby Weather Stations